Latest Weather Observations for Warburton

IDW60801

Issued at 2:32 pm WST Thursday 5 May 2016 (issued every 30 minutes, with the page automatically refreshed every 10 minutes)

About weather observations | Map of weather stations | Latest weather observations for WA | Other Formats
Station Details ID: 013011 Name: WARBURTON AIRFIELD Lat: -26.13 Lon: 126.58 Height: 459.0 m
Data from the previous 72 hours. | See also: Recent months at Warburton
Date/Time
WST
Temp
°C
App
Temp
°C
Dew
Point
Rel
Hum
%
Delta-T
°C
Wind Press
QNH
hPa
Press
MSL
hPa
Rain
since 9 am
mm
Dir
 
Spd
km/h
Gust
km/h
Spd
kts
Gust
kts
05/02:30pm 19.1 18.7 18.8 98 0.2 N 19 26 10 14 1014.9 - 0.8
05/02:00pm 18.8 18.5 18.3 97 0.3 NNE 17 24 9 13 1014.9 - 0.8
05/01:30pm 19.1 17.8 16.9 87 1.4 N 19 24 10 13 1015.7 - 0.6
05/01:00pm 19.4 19.2 16.8 85 1.6 N 13 15 7 8 1015.8 - 0.6
05/12:30pm 18.7 18.4 16.5 87 1.3 N 13 17 7 9 1016.2 - 0.4
05/12:00pm 18.3 17.6 15.4 83 1.7 N 13 17 7 9 1016.4 1015.2 0.2
05/11:30am 18.8 17.3 14.3 75 2.7 NNE 15 26 8 14 1016.7 - 0.0
05/11:00am 19.7 17.5 13.2 66 3.8 NNE 17 24 9 13 1017.1 - 0.0
05/10:30am 20.0 17.6 12.7 63 4.2 N 17 22 9 12 1017.7 - 0.0
05/10:00am 19.8 18.1 13.7 68 3.6 N 15 20 8 11 1017.8 - 0.0
05/09:30am 19.5 18.3 14.1 71 3.2 N 13 19 7 10 1018.0 - 0.0
05/09:00am 18.8 16.8 12.8 68 3.4 N 15 22 8 12 1018.5 1017.3 0.6
05/08:30am 18.1 16.4 12.3 69 3.3 N 13 17 7 9 1018.6 - 0.6
05/08:00am 17.9 16.9 12.4 70 3.1 N 9 11 5 6 1018.6 - 0.6
05/07:30am 17.1 15.8 12.4 74 2.7 N 11 15 6 8 1018.2 - 0.6
05/07:00am 16.3 14.8 11.9 75 2.5 NNE 11 15 6 8 1018.3 - 0.6
05/06:30am 16.3 14.5 11.0 71 2.9 N 11 15 6 8 1018.1 - 0.6
05/06:00am 16.5 13.6 11.0 70 3.0 NNE 17 20 9 11 1017.3 1016.1 0.4
05/05:30am 16.4 15.2 11.6 73 2.7 N 9 11 5 6 1017.5 - 0.4
05/05:00am 16.4 15.4 11.1 71 2.9 N 7 11 4 6 1017.0 - 0.4
05/04:30am 15.8 13.9 10.6 71 2.8 NE 11 15 6 8 1016.6 - 0.4
05/04:00am 17.2 13.9 8.1 55 4.7 WNW 15 20 8 11 1017.2 - 0.2
05/03:30am 20.8 15.4 1.1 27 9.2 WSW 19 20 10 11 1015.6 - 0.0
05/03:00am 20.9 17.3 0.7 26 9.3 ESE 9 13 5 7 1014.4 1013.2 0.0
05/02:30am 21.2 17.7 1.0 26 9.4 SSE 9 13 5 7 1014.8 - 0.0
05/02:00am 21.1 17.2 0.9 26 9.4 SSE 11 13 6 7 1014.9 - 0.0
05/01:30am 20.3 17.3 2.2 30 8.6 SE 7 11 4 6 1015.3 - 0.0
05/01:00am 20.1 18.5 2.5 31 8.4 CALM 0 2 0 1 1015.6 - 0.0
05/12:30am 20.0 17.3 2.4 31 8.4 ESE 6 7 3 4 1015.6 - 0.0
05/12:00am 19.9 17.0 2.7 32 8.2 ESE 7 9 4 5 1015.6 1014.4 0.0
 
Date/Time
WST
Temp
°C
App
Temp
°C
Dew
Point
Rel
Hum
%
Delta-T
°C
Wind Press
QNH
hPa
Press
MSL
hPa
Rain
since 9 am
mm
Dir
 
Spd
km/h
Gust
km/h
Spd
kts
Gust
kts
04/11:30pm 19.8 18.2 2.2 31 8.3 CALM 0 0 0 0 1016.0 - 0.0
04/11:00pm 20.1 18.3 1.5 29 8.7 CALM 0 2 0 1 1016.2 - 0.0
04/10:30pm 19.8 18.2 2.2 31 8.3 CALM 0 0 0 0 1016.3 - 0.0
04/10:00pm 19.7 18.0 2.1 31 8.3 CALM 0 0 0 0 1016.6 - 0.0
04/09:30pm 19.7 17.9 1.2 29 8.6 CALM 0 0 0 0 1016.7 - 0.0
04/09:00pm 21.3 18.3 0.5 25 9.6 SSE 6 7 3 4 1016.7 1015.5 0.0
04/08:30pm 22.6 18.9 -0.2 22 10.5 SSW 9 11 5 6 1017.0 - 0.0
04/08:00pm 22.1 18.7 -0.6 22 10.3 SSW 7 9 4 5 1016.7 - 0.0
04/07:30pm 23.6 19.8 -0.6 20 11.1 SW 9 11 5 6 1016.6 - 0.0
04/07:00pm 23.5 20.1 -0.7 20 11.1 SW 7 9 4 5 1016.5 - 0.0
04/06:30pm 23.1 19.8 0.2 22 10.7 SSW 7 9 4 5 1016.2 - 0.0
04/06:00pm 25.0 21.6 -0.9 18 12.0 SW 7 9 4 5 1015.9 1014.7 0.0
04/05:30pm 26.2 22.3 -1.6 16 12.8 SW 9 13 5 7 1015.5 - 0.0
04/05:00pm 27.2 23.0 -0.8 16 13.2 WSW 11 13 6 7 1015.3 - 0.0
04/04:30pm 28.1 23.1 -0.9 15 13.7 W 15 22 8 12 1015.2 - 0.0
04/04:00pm 28.9 23.5 -1.2 14 14.3 W 17 24 9 13 1014.8 - 0.0
04/03:30pm 29.5 23.6 -0.8 14 14.5 W 20 26 11 14 1014.8 - 0.0
04/03:00pm 29.7 24.2 0.3 15 14.4 WNW 19 28 10 15 1015.0 1013.7 0.0
04/02:30pm 29.9 24.2 -0.5 14 14.7 NW 19 24 10 13 1015.2 - 0.0
04/02:00pm 29.4 23.8 0.1 15 14.3 NW 19 26 10 14 1015.5 - 0.0
04/01:30pm 29.1 23.3 -0.1 15 14.1 NW 20 28 11 15 1015.5 - 0.0
04/01:00pm 29.0 23.8 -0.2 15 14.1 NW 17 24 9 13 1015.6 - 0.0
04/12:30pm 28.6 24.5 -0.5 15 13.9 NNW 11 20 6 11 1015.9 - 0.0
04/12:00pm 28.7 24.3 0.4 16 13.8 WNW 13 24 7 13 1016.6 1015.4 0.0
04/11:30am 28.2 23.6 1.7 18 13.2 N 15 24 8 13 1017.3 - 0.0
04/11:00am 27.9 24.2 2.2 19 12.8 N 11 20 6 11 1018.1 - 0.0
04/10:30am 26.9 22.6 1.3 19 12.5 NNE 13 26 7 14 1018.6 - 0.0
04/10:00am 26.1 20.7 1.4 20 12.0 NNE 19 26 10 14 1019.3 - 0.0
04/09:30am 24.8 19.5 1.7 22 11.2 NE 19 26 10 14 1019.6 - 0.0
04/09:00am 23.3 18.1 2.2 25 10.2 NE 19 24 10 13 1020.2 1019.0 0.0
04/08:30am 22.6 19.3 2.7 27 9.7 ENE 9 20 5 11 1020.3 - 0.0
04/08:00am 20.9 17.3 2.7 30 8.8 ESE 11 13 6 7 1020.4 - 0.0
04/07:30am 19.3 15.7 3.1 34 7.8 E 11 13 6 7 1020.2 - 0.0
04/07:00am 17.1 14.9 3.1 39 6.6 SSE 4 7 2 4 1019.8 - 0.0
04/06:30am 14.4 11.7 2.6 45 5.4 SE 6 11 3 6 1019.5 - 0.0
04/06:00am 13.7 11.7 2.3 46 5.1 SE 2 7 1 4 1019.4 1018.2 0.0
04/05:30am 15.0 11.2 1.9 41 5.9 ESE 11 17 6 9 1018.9 - 0.0
04/05:00am 15.6 11.5 2.1 40 6.2 ESE 13 22 7 12 1018.6 - 0.0
04/04:30am 15.6 11.9 2.1 40 6.2 ESE 11 15 6 8 1018.5 - 0.0
04/04:00am 15.4 12.1 2.2 41 6.0 ESE 9 13 5 7 1018.4 - 0.0
04/03:30am 15.0 12.0 2.2 42 5.8 ESE 7 11 4 6 1018.3 - 0.0
04/03:00am 15.6 12.3 2.4 41 6.0 ESE 9 15 5 8 1018.1 1016.9 0.0
04/02:30am 16.0 11.9 2.4 40 6.3 ESE 13 15 7 8 1018.0 - 0.0
04/02:00am 16.9 12.5 2.9 39 6.6 ESE 15 20 8 11 1018.0 - 0.0
04/01:30am 17.3 13.0 3.2 39 6.7 ESE 15 20 8 11 1018.3 - 0.0
04/01:00am 17.5 13.2 3.0 38 6.8 ESE 15 19 8 10 1018.5 - 0.0
04/12:30am 17.5 12.7 2.7 37 6.9 ESE 17 20 9 11 1018.5 - 0.0
04/12:00am 17.1 12.6 1.9 36 7.0 ESE 15 20 8 11 1018.6 1017.4 0.0
 
Date/Time
WST
Temp
°C
App
Temp
°C
Dew
Point
Rel
Hum
%
Delta-T
°C
Wind Press
QNH
hPa
Press
MSL
hPa
Rain
since 9 am
mm
Dir
 
Spd
km/h
Gust
km/h
Spd
kts
Gust
kts
03/11:30pm 17.4 12.8 1.4 34 7.3 ESE 15 19 8 10 1018.8 - 0.0
03/11:00pm 17.3 13.0 0.9 33 7.4 ESE 13 17 7 9 1018.9 - 0.0
03/10:30pm 17.7 13.3 0.4 31 7.7 ESE 13 17 7 9 1018.8 - 0.0
03/10:00pm 18.1 13.7 0.3 30 8.0 SE 13 15 7 8 1018.9 - 0.0
03/09:30pm 19.0 14.6 0.6 29 8.4 ESE 13 19 7 10 1019.4 - 0.0
03/09:00pm 19.2 15.2 0.8 29 8.4 ESE 11 17 6 9 1019.5 1018.3 0.0
03/08:30pm 18.3 15.5 3.0 36 7.3 SE 7 9 4 5 1019.5 - 0.0
03/08:00pm 18.2 15.6 4.4 40 6.7 SE 7 11 4 6 1019.4 - 0.0
03/07:30pm 18.9 16.3 4.3 38 7.1 SE 7 9 4 5 1019.3 - 0.0
03/07:00pm 21.2 18.6 4.3 33 8.4 SSW 7 11 4 6 1019.0 - 0.0
03/06:30pm 22.2 19.2 4.3 31 9.0 SSW 9 11 5 6 1018.8 - 0.0
03/06:00pm 23.3 20.3 4.3 29 9.6 SSW 9 11 5 6 1018.5 1017.3 0.0
03/05:30pm 24.4 21.3 3.7 26 10.4 SW 9 11 5 6 1018.1 - 0.0
03/05:00pm 25.9 21.9 2.6 22 11.6 SSW 13 17 7 9 1017.7 - 0.0
03/04:30pm 27.0 22.6 2.8 21 12.2 SSW 15 20 8 11 1017.4 - 0.0
03/04:00pm 27.6 22.9 3.3 21 12.4 SSW 17 26 9 14 1017.4 - 0.0
03/03:30pm 28.1 24.5 5.0 23 12.1 SW 13 20 7 11 1017.4 - 0.0
03/03:00pm 28.3 24.6 4.6 22 12.4 S 13 26 7 14 1017.3 1016.1 0.0
03/02:30pm 27.9 22.8 4.2 22 12.3 SW 20 32 11 17 1017.2 - 0.0
03/02:00pm 27.9 23.7 5.5 24 11.9 S 17 28 9 15 1017.3 - 0.0
03/01:30pm 28.4 24.6 5.9 24 12.0 S 15 26 8 14 1017.4 - 0.0
03/01:00pm 27.5 25.1 6.8 27 11.2 SSW 9 17 5 9 1017.8 - 0.0
03/12:30pm 26.7 24.2 6.7 28 10.7 S 9 17 5 9 1018.4 - 0.0
03/12:00pm 26.6 24.2 7.1 29 10.5 ENE 9 15 5 8 1018.7 1017.5 0.0
03/11:30am 26.2 23.5 7.3 30 10.2 SE 11 17 6 9 1019.5 - 0.0
03/11:00am 25.6 23.8 7.2 31 9.9 E 6 13 3 7 1020.1 - 0.0
03/10:30am 24.9 23.0 7.5 33 9.4 ESE 7 17 4 9 1020.6 - 0.0
03/10:00am 24.5 21.6 8.0 35 9.0 S 13 20 7 11 1020.9 - 0.0
03/09:30am 23.3 21.5 9.3 41 7.7 SE 9 15 5 8 1021.2 - 0.0
03/09:00am 22.4 21.2 11.5 50 6.2 SE 9 13 5 7 1021.6 1020.4 1.8
03/08:30am 20.5 19.2 12.5 60 4.6 SSE 11 15 6 8 1021.3 - 1.8
03/08:00am 18.5 18.3 13.6 73 2.8 S 7 13 4 7 1021.0 - 1.8
03/07:30am 16.2 16.6 15.2 94 0.6 S 7 9 4 5 1020.3 - 1.8
03/07:00am 14.7 15.7 14.4 98 0.2 SE 2 7 1 4 1019.7 - 1.8
03/06:30am 11.8 10.6 11.6 99 0.1 E 9 11 5 6 1019.3 - 1.8
03/06:00am 10.3 9.0 10.1 99 0.1 S 7 9 4 5 1019.3 1018.1 1.8
03/05:30am 10.1 9.4 9.9 99 0.1 S 4 9 2 5 1018.9 - 1.8
03/05:00am 10.2 8.9 10.0 99 0.1 SSE 7 9 4 5 1018.7 - 1.6
03/04:30am 10.2 9.5 10.0 99 0.1 NNW 4 7 2 4 1018.4 - 1.6
03/04:00am 10.4 9.4 10.2 99 0.1 ESE 6 7 3 4 1018.3 - 1.6
03/03:30am 10.8 11.0 10.6 99 0.1 CALM 0 0 0 0 1018.3 - 1.6
03/03:00am 11.4 10.5 11.2 99 0.1 S 7 9 4 5 1018.2 1017.0 1.6
03/02:30am 11.4 10.5 11.2 99 0.1 SE 7 7 4 4 1018.0 - 1.6
03/02:00am 11.3 11.3 11.1 99 0.1 SSE 2 7 1 4 1018.3 - 1.6
03/01:30am 12.1 11.4 11.9 99 0.1 S 7 9 4 5 1018.4 - 1.6
03/01:00am 13.0 12.7 12.8 99 0.1 SW 6 9 3 5 1018.5 - 1.6
03/12:30am 12.7 12.2 12.5 99 0.1 WSW 7 15 4 8 1018.3 - 1.6
03/12:00am 12.7 12.2 12.5 99 0.1 SSE 7 9 4 5 1018.0 1016.8 1.6
 
Date/Time
WST
Temp
°C
App
Temp
°C
Dew
Point
Rel
Hum
%
Delta-T
°C
Wind Press
QNH
hPa
Press
MSL
hPa
Rain
since 9 am
mm
Dir
 
Spd
km/h
Gust
km/h
Spd
kts
Gust
kts
02/11:30pm 13.0 13.8 12.7 98 0.2 CALM 0 0 0 0 1018.0 - 1.6
02/11:00pm 13.7 14.8 13.4 98 0.2 CALM 0 0 0 0 1018.1 - 1.6
02/10:30pm 14.0 13.5 13.7 98 0.2 SSE 9 9 5 5 1018.3 - 1.6
02/10:00pm 14.6 14.6 14.3 98 0.2 E 7 11 4 6 1018.4 - 1.6
02/09:30pm 14.3 13.5 14.0 98 0.2 NNE 11 13 6 7 1018.7 - 1.6
02/09:00pm 14.3 15.5 13.8 97 0.3 CALM 0 0 0 0 1018.9 1017.8 1.6
02/08:30pm 15.1 16.4 14.0 93 0.6 CALM 0 0 0 0 1019.3 - 1.6
02/08:00pm 15.7 15.2 13.7 88 1.1 NNE 9 11 5 6 1019.2 - 1.6
02/07:30pm 16.4 16.2 13.7 84 1.6 NNE 7 9 4 5 1019.2 - 1.6
02/07:00pm 16.4 16.2 13.7 84 1.6 NE 7 7 4 4 1019.2 - 1.6
02/06:30pm 17.4 17.4 13.5 78 2.3 NE 6 7 3 4 1018.9 - 1.6
02/06:00pm 18.1 17.5 13.4 74 2.7 N 9 11 5 6 1018.9 1017.8 1.6
02/05:30pm 18.7 18.4 13.3 71 3.1 NNE 7 9 4 5 1018.5 - 1.6
02/05:00pm 19.7 18.7 13.4 67 3.7 NE 11 13 6 7 1018.1 - 1.6
02/04:30pm 20.5 19.0 13.2 63 4.3 NNE 13 17 7 9 1018.3 - 1.6
02/04:00pm 20.8 19.5 13.7 64 4.2 N 13 19 7 10 1018.3 - 1.6
02/03:30pm 21.2 20.4 13.9 63 4.3 N 11 17 6 9 1018.4 - 1.6
02/03:00pm 20.9 20.4 13.8 64 4.2 NNE 9 15 5 8 1018.4 1017.2 1.4

Other Formats:

Comma delimited format used in spreadsheet applications
http://www.bom.gov.au/fwo/IDW60801/IDW60801.94457.axf

JavaScript Object Notation format (JSON) in row-major order
http://www.bom.gov.au/fwo/IDW60801/IDW60801.94457.json